Okayama, Japan
Current Conditions -  °F | °C
As of 5:00 PM on Sunday 26 Oct 2014 (Local Time) from RJOB Reporting Station
Broken Clouds Broken Clouds  
Wind Chill: 68°   Ceiling: 7000
Heat Index: 68°   Visibility: 6mi
Dew Point: 59°   Wind: 3mph
Humidity: 73%   Direction: 170°S
Pressure: 30.03"   Gusts: NA
Location:  34.67°N, 133.92°E
Report Text: RJOB 260800Z 17003KT 130V220 9999 FEW020 BKN070 BKN/// 20/15 Q1017
Loading
Personal Weather Stations






























Interactive Weather Map
Tropical Storm Tracking
New forecast layout! Learn more

10-Day Weather Forecast

Advertisements
Track Severe Weather on mobile